createdAt,value
2023-04-18T00:01:21.440Z,8.90
2023-04-18T00:03:50.177Z,8.90
2023-04-18T00:06:16.880Z,8.80
2023-04-18T00:08:43.697Z,8.80
2023-04-18T00:11:10.161Z,8.70
2023-04-18T00:13:37.026Z,8.60
2023-04-18T00:16:03.953Z,8.60
2023-04-18T00:18:30.405Z,8.50
2023-04-18T00:20:57.473Z,8.50
2023-04-18T00:23:24.115Z,8.40
2023-04-18T00:25:50.854Z,8.30
2023-04-18T00:28:17.304Z,8.30
2023-04-18T00:30:44.144Z,8.20
2023-04-18T00:33:10.573Z,8.20
2023-04-18T00:35:37.314Z,8.20
2023-04-18T00:38:03.810Z,8.20
2023-04-18T00:40:30.984Z,8.10
2023-04-18T00:42:57.452Z,8.10
2023-04-18T00:45:24.301Z,8.10
2023-04-18T00:47:51.198Z,8.00
2023-04-18T00:50:18.207Z,8.00
2023-04-18T00:52:45.891Z,8.00
2023-04-18T00:55:12.543Z,8.00
2023-04-18T00:57:39.516Z,7.90
2023-04-18T01:00:06.984Z,7.90
2023-04-18T01:02:33.726Z,7.90
2023-04-18T01:05:00.537Z,7.80
2023-04-18T01:07:27.054Z,7.80
2023-04-18T01:09:54.874Z,7.80
2023-04-18T01:12:21.339Z,7.80
2023-04-18T01:14:48.476Z,7.80
2023-04-18T01:17:14.970Z,7.70
2023-04-18T01:19:41.762Z,7.70
2023-04-18T01:22:10.050Z,7.70
2023-04-18T01:24:36.844Z,7.70
2023-04-18T01:27:03.430Z,7.70
2023-04-18T01:29:29.898Z,7.60
2023-04-18T01:31:56.785Z,7.60
2023-04-18T01:34:23.406Z,7.60
2023-04-18T01:36:50.147Z,7.60
2023-04-18T01:39:16.665Z,7.60
2023-04-18T01:41:43.443Z,7.60
2023-04-18T01:44:10.015Z,7.60
2023-04-18T01:46:36.896Z,7.50
2023-04-18T01:49:03.416Z,7.50
2023-04-18T01:51:30.342Z,7.50
2023-04-18T01:53:56.797Z,7.50
2023-04-18T01:56:23.270Z,7.40
2023-04-18T01:58:49.929Z,7.40
2023-04-18T02:01:16.452Z,7.40
2023-04-18T02:03:43.338Z,7.30
2023-04-18T02:06:10.232Z,7.30
2023-04-18T02:08:37.213Z,7.30
2023-04-18T02:11:03.744Z,7.30
2023-04-18T02:13:30.280Z,7.30
2023-04-18T02:15:57.124Z,7.20
2023-04-18T02:18:24.696Z,7.20
2023-04-18T02:20:52.234Z,7.20
2023-04-18T02:23:18.968Z,7.20
2023-04-18T02:25:45.599Z,7.10
2023-04-18T02:28:12.040Z,7.10
2023-04-18T02:30:38.900Z,7.10
2023-04-18T02:33:05.405Z,7.10
2023-04-18T02:35:32.216Z,7.10
2023-04-18T02:37:59.040Z,7.10
2023-04-18T02:40:25.483Z,7.10
2023-04-18T02:42:52.308Z,7.10
2023-04-18T02:45:18.811Z,7.10
2023-04-18T02:47:54.588Z,7.00
2023-04-18T02:50:23.245Z,7.00
2023-04-18T02:52:49.938Z,7.00
2023-04-18T02:55:16.550Z,7.00
2023-04-18T02:57:43.372Z,7.00
2023-04-18T03:00:10.423Z,7.00
2023-04-18T03:02:37.399Z,7.00
2023-04-18T03:05:04.267Z,6.90
2023-04-18T03:07:31.139Z,6.90
2023-04-18T03:09:57.847Z,6.90
2023-04-18T03:12:24.731Z,6.80
2023-04-18T03:14:51.193Z,6.80
2023-04-18T03:17:17.747Z,6.70
2023-04-18T03:19:44.662Z,6.70
2023-04-18T03:22:11.113Z,6.70
2023-04-18T03:24:37.913Z,6.60
2023-04-18T03:27:04.418Z,6.60
2023-04-18T03:29:30.867Z,6.60
2023-04-18T03:31:57.692Z,6.60
2023-04-18T03:34:24.141Z,6.60
2023-04-18T03:36:50.609Z,6.50
2023-04-18T03:39:17.057Z,6.50
2023-04-18T03:41:43.505Z,6.50
2023-04-18T03:44:10.396Z,6.60
2023-04-18T03:46:36.956Z,6.60
2023-04-18T03:49:03.812Z,6.70
2023-04-18T03:51:42.807Z,6.80
2023-04-18T03:54:09.277Z,6.80
2023-04-18T03:56:36.582Z,6.90
2023-04-18T03:59:03.108Z,6.90
2023-04-18T04:01:30.023Z,7.00
2023-04-18T04:03:56.947Z,7.00
2023-04-18T04:06:23.816Z,7.10
2023-04-18T04:08:50.315Z,7.10
2023-04-18T04:11:16.791Z,7.10
2023-04-18T04:13:43.658Z,7.20
2023-04-18T04:16:12.856Z,7.20
2023-04-18T04:18:39.641Z,7.30
2023-04-18T04:21:06.149Z,7.30
2023-04-18T04:23:32.713Z,7.30
2023-04-18T04:25:59.611Z,7.30
2023-04-18T04:28:26.050Z,7.40
2023-04-18T04:30:53.001Z,7.40
2023-04-18T04:33:20.727Z,7.40
2023-04-18T04:35:47.978Z,7.50
2023-04-18T04:38:14.566Z,7.50
2023-04-18T04:40:41.724Z,7.50
2023-04-18T04:43:08.952Z,7.50
2023-04-18T04:45:35.420Z,7.60
2023-04-18T04:48:02.330Z,7.60
2023-04-18T04:50:28.897Z,7.60
2023-04-18T04:52:55.686Z,7.70
2023-04-18T04:55:22.167Z,7.70
2023-04-18T04:57:48.984Z,7.70
2023-04-18T05:00:15.922Z,7.70
2023-04-18T05:02:42.541Z,7.70
2023-04-18T05:05:09.538Z,7.70
2023-04-18T05:07:35.971Z,7.80
2023-04-18T05:10:02.827Z,7.80
2023-04-18T05:12:29.309Z,7.90
2023-04-18T05:14:55.794Z,7.90
2023-04-18T05:17:22.424Z,8.00
2023-04-18T05:19:48.976Z,8.10
2023-04-18T05:22:15.440Z,8.30
2023-04-18T05:24:41.965Z,8.50
2023-04-18T05:27:08.445Z,8.60
2023-04-18T05:29:35.188Z,8.80
2023-04-18T05:32:01.771Z,8.80
2023-04-18T05:34:28.248Z,8.80
2023-04-18T05:36:54.739Z,8.80
2023-04-18T05:39:21.207Z,8.80
2023-04-18T05:41:47.721Z,8.70
2023-04-18T05:44:14.574Z,8.70
2023-04-18T05:46:41.457Z,8.80
2023-04-18T05:49:08.529Z,8.90
2023-04-18T05:51:34.999Z,8.90
2023-04-18T05:54:01.647Z,9.00
2023-04-18T05:56:28.181Z,9.00
2023-04-18T05:58:55.064Z,9.10
2023-04-18T06:01:21.936Z,9.00
2023-04-18T06:03:48.603Z,9.10
2023-04-18T06:06:16.053Z,9.10
2023-04-18T06:08:42.484Z,9.10
2023-04-18T06:11:09.333Z,9.10
2023-04-18T06:13:36.255Z,9.20
2023-04-18T06:16:03.163Z,9.50
2023-04-18T06:18:29.704Z,10.00
2023-04-18T06:20:56.175Z,10.70
2023-04-18T06:23:22.993Z,11.50
2023-04-18T06:25:49.587Z,12.10
2023-04-18T06:28:16.557Z,12.60
2023-04-18T06:30:43.168Z,12.90
2023-04-18T06:33:10.041Z,13.00
2023-04-18T06:35:37.173Z,13.20
2023-04-18T06:38:04.048Z,13.50
2023-04-18T06:40:30.583Z,13.50
2023-04-18T06:42:57.275Z,13.20
2023-04-18T06:45:23.716Z,13.00
2023-04-18T06:47:50.800Z,12.90
2023-04-18T06:50:17.304Z,12.90
2023-04-18T06:52:43.770Z,12.70
2023-04-18T06:55:12.391Z,12.50
2023-04-18T06:57:40.720Z,12.20
2023-04-18T07:00:07.860Z,12.40
2023-04-18T07:02:37.483Z,12.60
2023-04-18T07:05:04.321Z,12.90
2023-04-18T07:07:31.715Z,13.20
2023-04-18T07:09:58.986Z,13.60
2023-04-18T07:12:25.505Z,13.70
2023-04-18T07:14:52.655Z,13.80
2023-04-18T07:17:19.373Z,13.90
2023-04-18T07:19:46.262Z,14.00
2023-04-18T07:22:12.728Z,14.10
2023-04-18T07:24:39.530Z,13.80
2023-04-18T07:27:06.899Z,13.30
2023-04-18T07:29:33.344Z,12.70
2023-04-18T07:32:00.129Z,12.40
2023-04-18T07:34:26.659Z,12.00
2023-04-18T07:36:53.520Z,11.70
2023-04-18T07:39:20.336Z,11.70
2023-04-18T07:41:46.783Z,11.70
2023-04-18T07:44:14.240Z,11.60
2023-04-18T07:46:41.447Z,11.70
2023-04-18T07:49:08.289Z,11.70
2023-04-18T07:51:37.058Z,11.80
2023-04-18T07:54:03.601Z,11.80
2023-04-18T07:56:30.395Z,11.50
2023-04-18T07:58:56.828Z,11.40
2023-04-18T08:01:23.622Z,11.20
2023-04-18T08:03:50.634Z,11.10
2023-04-18T08:06:17.543Z,11.00
2023-04-18T08:08:44.198Z,10.90
2023-04-18T08:11:11.046Z,10.80
2023-04-18T08:13:37.513Z,10.80
2023-04-18T08:16:04.258Z,10.90
2023-04-18T08:18:30.998Z,10.90
2023-04-18T08:20:57.429Z,10.90
2023-04-18T08:23:24.262Z,10.80
2023-04-18T08:25:50.715Z,10.80
2023-04-18T08:28:17.972Z,10.90
2023-04-18T08:30:44.448Z,10.90
2023-04-18T08:33:11.417Z,10.80
2023-04-18T08:35:38.232Z,10.80
2023-04-18T08:38:04.677Z,10.80
2023-04-18T08:40:31.691Z,10.70
2023-04-18T08:43:01.534Z,10.70
2023-04-18T08:45:28.419Z,10.70
2023-04-18T08:47:55.377Z,10.60
2023-04-18T08:50:22.418Z,10.60
2023-04-18T08:52:50.477Z,10.60
2023-04-18T08:55:17.099Z,10.80
2023-04-18T08:57:44.222Z,10.90
2023-04-18T09:00:11.254Z,10.90
2023-04-18T09:02:40.299Z,10.90
2023-04-18T09:05:19.540Z,11.10
2023-04-18T09:07:47.915Z,11.30
2023-04-18T09:10:28.771Z,11.30
2023-04-18T09:12:57.352Z,11.40
2023-04-18T09:15:26.405Z,11.40
2023-04-18T09:17:54.441Z,11.50
2023-04-18T09:20:36.356Z,11.60
2023-04-18T09:23:11.566Z,11.80
2023-04-18T09:25:45.269Z,11.90
2023-04-18T09:28:32.090Z,12.00
2023-04-18T09:31:12.324Z,12.20
2023-04-18T09:33:40.789Z,12.30
2023-04-18T09:36:20.506Z,12.40
2023-04-18T09:38:48.743Z,12.40
2023-04-18T09:41:15.587Z,12.30
2023-04-18T09:43:42.720Z,12.20
2023-04-18T09:46:09.756Z,12.10
2023-04-18T09:48:37.090Z,12.00
2023-04-18T09:51:12.164Z,12.00
2023-04-18T09:53:39.576Z,11.90
2023-04-18T09:56:18.858Z,11.80
2023-04-18T09:58:50.374Z,11.70
2023-04-18T10:01:17.300Z,11.70
2023-04-18T10:03:50.299Z,11.50
2023-04-18T10:06:17.972Z,11.50
2023-04-18T10:08:46.924Z,11.40
2023-04-18T10:11:13.685Z,11.40
2023-04-18T10:13:44.678Z,11.40
2023-04-18T10:16:11.332Z,11.40
2023-04-18T10:18:38.267Z,11.40
2023-04-18T10:21:05.923Z,11.30
2023-04-18T10:23:32.381Z,11.30
2023-04-18T10:25:59.500Z,11.30
2023-04-18T10:28:26.902Z,11.20
2023-04-18T10:31:01.238Z,11.30
2023-04-18T10:33:41.051Z,11.30
2023-04-18T10:36:09.049Z,11.50
2023-04-18T10:38:37.043Z,11.70
2023-04-18T10:41:23.803Z,11.80
2023-04-18T10:44:09.108Z,12.00
2023-04-18T10:46:39.309Z,12.20
2023-04-18T10:49:19.716Z,12.50
2023-04-18T10:52:04.442Z,12.60
2023-04-18T10:54:53.054Z,12.60
2023-04-18T10:57:19.506Z,12.60
2023-04-18T10:59:49.894Z,12.70
2023-04-18T11:02:26.430Z,12.70
2023-04-18T11:04:54.703Z,12.80
2023-04-18T11:07:40.546Z,12.70
2023-04-18T11:10:08.929Z,12.60
2023-04-18T11:12:37.467Z,12.60
2023-04-18T11:15:11.126Z,12.70
2023-04-18T11:17:38.847Z,12.70
2023-04-18T11:20:11.359Z,12.90
2023-04-18T11:22:47.486Z,12.80
2023-04-18T11:25:18.374Z,12.80
2023-04-18T11:27:47.400Z,12.90
2023-04-18T11:30:14.754Z,13.00
2023-04-18T11:32:42.152Z,13.00
2023-04-18T11:35:10.969Z,13.10
2023-04-18T11:37:38.883Z,13.20
2023-04-18T11:40:08.269Z,13.20
2023-04-18T11:42:37.597Z,13.00
2023-04-18T11:45:08.526Z,13.10
2023-04-18T11:47:35.059Z,13.20
2023-04-18T11:50:04.659Z,13.20
2023-04-18T11:52:32.426Z,13.20
2023-04-18T11:55:18.561Z,13.10
2023-04-18T11:57:56.643Z,13.20
2023-04-18T12:00:36.385Z,13.10
2023-04-18T12:03:05.466Z,13.20
2023-04-18T12:05:34.908Z,13.30
2023-04-18T12:08:19.595Z,13.40
2023-04-18T12:10:50.754Z,13.40
2023-04-18T12:13:18.798Z,13.40
2023-04-18T12:15:46.478Z,13.50
2023-04-18T12:18:14.528Z,13.40
2023-04-18T12:20:43.164Z,13.40
2023-04-18T12:23:09.647Z,13.40
2023-04-18T12:25:36.419Z,13.50
2023-04-18T12:28:13.131Z,13.50
2023-04-18T12:30:39.596Z,13.40
2023-04-18T12:33:06.325Z,13.40
2023-04-18T12:35:32.963Z,13.40
2023-04-18T12:38:00.903Z,13.50
2023-04-18T12:40:28.542Z,13.60
2023-04-18T12:42:56.258Z,13.60
2023-04-18T12:45:23.400Z,13.80
2023-04-18T12:47:51.743Z,13.80
2023-04-18T12:50:20.963Z,13.80
2023-04-18T12:52:47.886Z,13.70
2023-04-18T12:55:14.638Z,13.60
2023-04-18T12:57:42.306Z,13.60
2023-04-18T13:00:09.774Z,13.60
2023-04-18T13:02:37.568Z,13.60
2023-04-18T13:05:09.063Z,13.70
2023-04-18T13:07:36.020Z,13.70
2023-04-18T13:10:02.893Z,13.80
2023-04-18T13:12:30.062Z,13.80
2023-04-18T13:14:56.990Z,13.90
2023-04-18T13:17:23.515Z,14.00
2023-04-18T13:19:50.055Z,14.10
2023-04-18T13:22:19.076Z,14.30
2023-04-18T13:24:45.571Z,14.30
2023-04-18T13:27:13.217Z,14.20
2023-04-18T13:29:40.607Z,14.10
2023-04-18T13:32:08.219Z,14.00
2023-04-18T13:34:38.363Z,14.10
2023-04-18T13:37:05.592Z,14.10
2023-04-18T13:39:33.190Z,14.10
2023-04-18T13:42:00.078Z,14.20
2023-04-18T13:44:26.544Z,14.30
2023-04-18T13:46:53.096Z,14.40
2023-04-18T13:49:19.620Z,14.50
2023-04-18T13:51:46.106Z,14.40
2023-04-18T13:54:13.861Z,14.20
2023-04-18T13:56:40.800Z,14.10
2023-04-18T13:59:07.391Z,14.10
2023-04-18T14:01:34.103Z,14.10
2023-04-18T14:04:01.060Z,14.10
2023-04-18T14:06:27.978Z,14.10
2023-04-18T14:08:55.061Z,14.30
2023-04-18T14:11:23.289Z,14.50
2023-04-18T14:13:49.753Z,14.60
2023-04-18T14:16:16.912Z,14.70
2023-04-18T14:18:43.422Z,14.70
2023-04-18T14:21:10.359Z,14.60
2023-04-18T14:23:36.811Z,14.50
2023-04-18T14:26:03.286Z,14.50
2023-04-18T14:28:30.575Z,14.40
2023-04-18T14:30:58.101Z,14.40
2023-04-18T14:33:24.629Z,14.40
2023-04-18T14:35:51.092Z,14.50
2023-04-18T14:38:17.684Z,14.70
2023-04-18T14:40:44.161Z,15.00
2023-04-18T14:43:11.692Z,15.30
2023-04-18T14:45:38.182Z,15.40
2023-04-18T14:48:05.173Z,15.60
2023-04-18T14:50:32.186Z,15.70
2023-04-18T14:52:58.681Z,15.70
2023-04-18T14:55:25.610Z,15.70
2023-04-18T14:57:52.085Z,15.50
2023-04-18T15:00:18.915Z,15.40
2023-04-18T15:02:45.476Z,15.40
2023-04-18T15:05:12.982Z,15.30
2023-04-18T15:07:39.677Z,15.40
2023-04-18T15:10:07.402Z,15.30
2023-04-18T15:12:33.909Z,15.30
2023-04-18T15:15:00.395Z,15.20
2023-04-18T15:17:27.945Z,15.20
2023-04-18T15:19:54.508Z,15.10
2023-04-18T15:22:21.123Z,15.10
2023-04-18T15:24:47.895Z,15.30
2023-04-18T15:27:14.571Z,15.50
2023-04-18T15:29:41.077Z,15.70
2023-04-18T15:32:07.592Z,15.80
2023-04-18T15:34:34.085Z,15.80
2023-04-18T15:37:00.547Z,15.90
2023-04-18T15:39:26.995Z,15.90
2023-04-18T15:41:54.410Z,15.70
2023-04-18T15:44:21.422Z,15.60
2023-04-18T15:46:49.021Z,15.50
2023-04-18T15:49:16.441Z,15.30
2023-04-18T15:51:42.993Z,15.30
2023-04-18T15:54:09.470Z,15.20
2023-04-18T15:56:35.950Z,15.30
2023-04-18T15:59:04.608Z,15.30
2023-04-18T16:01:31.742Z,15.30
2023-04-18T16:03:58.407Z,15.30
2023-04-18T16:06:24.908Z,15.20
2023-04-18T16:08:51.350Z,15.20
2023-04-18T16:11:20.028Z,15.20
2023-04-18T16:13:46.519Z,15.10
2023-04-18T16:16:13.085Z,15.00
2023-04-18T16:18:39.652Z,15.10
2023-04-18T16:21:06.155Z,15.10
2023-04-18T16:23:32.866Z,15.20
2023-04-18T16:25:59.331Z,15.10
2023-04-18T16:28:25.829Z,14.90
2023-04-18T16:30:54.877Z,14.80
2023-04-18T16:33:22.233Z,14.70
2023-04-18T16:35:48.801Z,14.70
2023-04-18T16:38:15.247Z,14.60
2023-04-18T16:40:41.678Z,14.60
2023-04-18T16:43:08.133Z,14.60
2023-04-18T16:45:34.585Z,14.60
2023-04-18T16:48:01.531Z,14.60
2023-04-18T16:50:28.405Z,14.60
2023-04-18T16:52:54.899Z,14.60
2023-04-18T16:55:21.514Z,14.50
2023-04-18T16:57:47.962Z,14.50
2023-04-18T17:00:15.160Z,14.50
2023-04-18T17:02:41.666Z,14.40
2023-04-18T17:05:10.022Z,14.40
2023-04-18T17:07:37.245Z,14.40
2023-04-18T17:10:03.931Z,14.40
2023-04-18T17:12:30.419Z,14.40
2023-04-18T17:14:56.914Z,14.40
2023-04-18T17:17:23.361Z,14.40
2023-04-18T17:19:50.107Z,14.40
2023-04-18T17:22:16.568Z,14.40
2023-04-18T17:24:43.030Z,14.30
2023-04-18T17:27:09.543Z,14.30
2023-04-18T17:29:36.039Z,14.30
2023-04-18T17:32:02.570Z,14.30
2023-04-18T17:34:29.583Z,14.30
2023-04-18T17:36:56.036Z,14.20
2023-04-18T17:39:22.671Z,14.10
2023-04-18T17:41:49.340Z,14.10
2023-04-18T17:44:15.785Z,14.10
2023-04-18T17:46:42.224Z,14.00
2023-04-18T17:49:08.670Z,13.90
2023-04-18T17:51:35.110Z,13.80
2023-04-18T17:54:01.658Z,13.80
2023-04-18T17:56:28.395Z,13.70
2023-04-18T17:58:56.672Z,13.70
2023-04-18T18:01:23.341Z,13.60
2023-04-18T18:03:50.088Z,13.60
2023-04-18T18:06:16.804Z,13.50
2023-04-18T18:08:43.785Z,13.50
2023-04-18T18:11:10.616Z,13.40
2023-04-18T18:13:37.204Z,13.40
2023-04-18T18:16:04.183Z,13.30
2023-04-18T18:18:30.685Z,13.30
2023-04-18T18:20:58.222Z,13.20
2023-04-18T18:23:24.869Z,13.20
2023-04-18T18:25:51.361Z,13.20
2023-04-18T18:28:17.882Z,13.10
2023-04-18T18:30:44.354Z,13.00
2023-04-18T18:33:10.920Z,13.00
2023-04-18T18:35:37.413Z,13.00
2023-04-18T18:38:03.878Z,13.00
2023-04-18T18:40:30.958Z,12.90
2023-04-18T18:42:57.407Z,12.80
2023-04-18T18:45:24.192Z,12.80
2023-04-18T18:47:50.719Z,12.70
2023-04-18T18:50:17.243Z,12.70
2023-04-18T18:52:43.687Z,12.60
2023-04-18T18:55:11.164Z,12.60
2023-04-18T18:57:37.696Z,12.60
2023-04-18T19:00:06.485Z,12.50
2023-04-18T19:02:33.535Z,12.50
2023-04-18T19:05:00.460Z,12.40
2023-04-18T19:07:29.482Z,12.40
2023-04-18T19:09:56.479Z,12.30
2023-04-18T19:12:22.958Z,12.20
2023-04-18T19:14:49.817Z,12.20
2023-04-18T19:17:16.667Z,12.10
2023-04-18T19:19:43.183Z,12.10
2023-04-18T19:22:10.176Z,12.10
2023-04-18T19:24:37.014Z,12.00
2023-04-18T19:27:03.508Z,12.00
2023-04-18T19:29:32.486Z,11.90
2023-04-18T19:31:59.276Z,11.80
2023-04-18T19:34:26.122Z,11.80
2023-04-18T19:36:52.582Z,11.80
2023-04-18T19:39:19.364Z,11.70
2023-04-18T19:41:45.804Z,11.70
2023-04-18T19:44:12.247Z,11.70
2023-04-18T19:46:38.905Z,11.60
2023-04-18T19:49:05.908Z,11.60
2023-04-18T19:51:32.810Z,11.60
2023-04-18T19:53:59.661Z,11.60
2023-04-18T19:56:26.493Z,11.50
2023-04-18T19:58:52.964Z,11.50
2023-04-18T20:01:20.318Z,11.40
2023-04-18T20:03:47.655Z,11.40
2023-04-18T20:06:14.494Z,11.40
2023-04-18T20:08:41.757Z,11.40
2023-04-18T20:11:10.209Z,11.40
2023-04-18T20:13:37.077Z,11.30
2023-04-18T20:16:04.665Z,11.30
2023-04-18T20:18:31.177Z,11.20
2023-04-18T20:20:58.066Z,11.30
2023-04-18T20:23:24.916Z,11.20
2023-04-18T20:25:51.404Z,11.20
2023-04-18T20:28:17.862Z,11.10
2023-04-18T20:30:44.718Z,11.10
2023-04-18T20:33:13.443Z,11.10
2023-04-18T20:35:40.443Z,11.00
2023-04-18T20:38:07.195Z,11.00
2023-04-18T20:40:35.057Z,11.00
2023-04-18T20:43:01.692Z,11.00
2023-04-18T20:45:28.819Z,11.00
2023-04-18T20:47:56.179Z,10.90
2023-04-18T20:50:22.696Z,10.90
2023-04-18T20:52:49.152Z,10.90
2023-04-18T20:55:15.642Z,10.90
2023-04-18T20:57:42.545Z,10.90
2023-04-18T21:00:09.423Z,10.80
2023-04-18T21:02:36.249Z,10.80
2023-04-18T21:05:02.963Z,10.80
2023-04-18T21:07:29.803Z,10.80
2023-04-18T21:09:56.477Z,10.80
2023-04-18T21:12:22.977Z,10.80
2023-04-18T21:14:49.676Z,10.80
2023-04-18T21:17:16.123Z,10.90
2023-04-18T21:19:45.410Z,10.90
2023-04-18T21:22:11.923Z,10.90
2023-04-18T21:24:38.742Z,11.00
2023-04-18T21:27:05.184Z,11.10
2023-04-18T21:29:32.220Z,11.10
2023-04-18T21:31:58.746Z,11.20
2023-04-18T21:34:25.730Z,11.20
2023-04-18T21:36:52.572Z,11.20
2023-04-18T21:39:19.002Z,11.20
2023-04-18T21:41:45.894Z,11.30
2023-04-18T21:44:12.339Z,11.30
2023-04-18T21:46:39.213Z,11.30
2023-04-18T21:49:06.373Z,11.40
2023-04-18T21:51:32.841Z,11.40
2023-04-18T21:53:59.688Z,11.50
2023-04-18T21:56:26.134Z,11.50
2023-04-18T21:58:52.885Z,11.50
2023-04-18T22:01:19.430Z,11.60
2023-04-18T22:03:46.418Z,11.50
2023-04-18T22:06:12.986Z,11.60
2023-04-18T22:08:39.814Z,11.60
2023-04-18T22:11:06.278Z,11.60
2023-04-18T22:13:32.749Z,11.60
2023-04-18T22:16:00.863Z,11.60
2023-04-18T22:18:27.431Z,11.60
2023-04-18T22:20:54.108Z,11.70
2023-04-18T22:23:20.562Z,11.70
2023-04-18T22:25:47.534Z,11.70
2023-04-18T22:28:14.054Z,11.70
2023-04-18T22:30:40.918Z,11.70
2023-04-18T22:33:07.761Z,11.70
2023-04-18T22:35:34.217Z,11.70
2023-04-18T22:38:01.146Z,11.70
2023-04-18T22:40:27.619Z,11.70
2023-04-18T22:42:54.478Z,11.80
2023-04-18T22:45:20.995Z,11.80
2023-04-18T22:47:47.811Z,11.80
2023-04-18T22:50:14.618Z,11.80
2023-04-18T22:52:41.680Z,11.80
2023-04-18T22:55:08.706Z,11.80
2023-04-18T22:57:35.288Z,11.80
2023-04-18T23:00:01.843Z,11.80
2023-04-18T23:02:28.543Z,11.80
2023-04-18T23:04:57.361Z,11.80
2023-04-18T23:07:23.824Z,11.80
2023-04-18T23:09:50.663Z,11.80
2023-04-18T23:12:17.122Z,11.80
2023-04-18T23:14:43.936Z,11.80
2023-04-18T23:17:10.395Z,11.80
2023-04-18T23:19:37.194Z,11.80
2023-04-18T23:22:03.710Z,11.80
2023-04-18T23:24:30.904Z,11.80
2023-04-18T23:26:57.759Z,11.70
2023-04-18T23:29:24.587Z,11.70
2023-04-18T23:31:51.508Z,11.80
2023-04-18T23:34:18.061Z,11.80
2023-04-18T23:36:44.900Z,11.80
2023-04-18T23:39:11.358Z,11.80
2023-04-18T23:41:38.304Z,11.80
2023-04-18T23:44:04.949Z,11.80
2023-04-18T23:46:31.409Z,11.80
2023-04-18T23:48:58.310Z,11.80
2023-04-18T23:51:24.794Z,11.80
2023-04-18T23:53:51.638Z,11.80
2023-04-18T23:56:18.092Z,11.80
2023-04-18T23:58:44.951Z,11.80
